Time;durP1;ratioP1;P1;durP2;ratioP2;P2;SDS_P1;SDS_P2;PMS_P1;PMS_P2;Temp;Humidity;BMP_temperature;BMP_pressure;BME280_temperature;BME280_humidity;BME280_pressure;Samples;Min_cycle;Max_cycle;Signal;HPM_P1;HPM_P2
2023/03/20 18:29:42;;;;;;;10.43;2.90;;;16.60;76.60;;;;;;5070252;27;20395;-51
2023/03/20 18:32:09;;;;;;;7.05;3.08;;;17.50;71.40;;;;;;5069777;28;20064;-54
2023/03/20 18:34:36;;;;;;;10.93;3.53;;;17.30;71.60;;;;;;5071785;28;20068;-53
2023/03/20 18:37:06;;;;;;;7.22;3.15;;;17.20;71.90;;;;;;5055091;28;20393;-55
2023/03/20 18:39:33;;;;;;;8.07;2.60;;;17.20;72.80;;;;;;5064992;28;20052;-54
2023/03/20 18:42:00;;;;;;;10.05;3.20;;;17.20;72.30;;;;;;5058864;28;20109;-50
2023/03/20 18:44:28;;;;;;;10.07;3.90;;;17.20;72.20;;;;;;5060632;28;20048;-51
2023/03/20 18:46:55;;;;;;;9.40;4.47;;;17.20;72.90;;;;;;5068978;28;20056;-51
2023/03/20 18:49:22;;;;;;;9.30;4.00;;;17.20;73.00;;;;;;5069235;28;20049;-51
2023/03/20 18:51:48;;;;;;;7.95;3.60;;;17.20;72.80;;;;;;5068639;28;20051;-52
2023/03/20 18:54:15;;;;;;;6.53;3.55;;;17.20;73.20;;;;;;5059918;28;20080;-50
2023/03/20 18:56:42;;;;;;;8.48;3.10;;;17.20;73.10;;;;;;5069351;28;20051;-51
2023/03/20 18:59:11;;;;;;;6.22;2.88;;;17.20;73.00;;;;;;5069146;28;20049;-53
2023/03/20 19:01:38;;;;;;;5.72;2.47;;;17.20;73.10;;;;;;5067584;28;20047;-53
2023/03/20 19:04:04;;;;;;;6.00;3.10;;;17.10;72.90;;;;;;5040937;27;58046;-49
2023/03/20 19:06:32;;;;;;;6.93;3.13;;;17.10;73.20;;;;;;5027318;28;20049;-52
2023/03/20 19:09:01;;;;;;;7.13;2.53;;;17.10;73.30;;;;;;5028955;28;20050;-49
2023/03/20 19:11:28;;;;;;;6.50;2.72;;;17.20;73.20;;;;;;5028117;28;20080;-50
2023/03/20 19:13:55;;;;;;;5.82;2.42;;;17.10;73.10;;;;;;5024886;28;57178;-48
2023/03/20 19:16:26;;;;;;;5.22;2.47;;;17.10;73.20;;;;;;5016492;28;20053;-52
2023/03/20 19:18:54;;;;;;;3.97;2.50;;;17.10;73.30;;;;;;5024202;28;20049;-50
2023/03/20 19:21:27;;;;;;;5.72;2.60;;;17.10;73.30;;;;;;5008984;28;20481;-49
2023/03/20 19:23:55;;;;;;;3.80;2.28;;;17.10;73.40;;;;;;5009209;28;20421;-53
2023/03/20 19:26:26;;;;;;;6.65;2.33;;;17.00;73.50;;;;;;5009199;28;20068;-51
2023/03/20 19:28:53;;;;;;;4.72;2.13;;;17.00;73.50;;;;;;5008481;28;20089;-48
2023/03/20 19:31:21;;;;;;;6.20;2.50;;;17.00;73.50;;;;;;5026305;28;20050;-51
2023/03/20 19:33:47;;;;;;;4.00;2.10;;;17.00;73.50;;;;;;5028982;28;20170;-53
2023/03/20 19:36:28;;;;;;;5.85;2.30;;;17.00;73.80;;;;;;5027337;28;20115;-54
2023/03/20 19:38:56;;;;;;;2.90;1.92;;;17.00;73.80;;;;;;5026830;28;20061;-53
2023/03/20 19:41:23;;;;;;;4.45;1.98;;;17.00;73.80;;;;;;5014960;28;20053;-48
2023/03/20 19:43:49;;;;;;;4.78;2.25;;;17.10;73.70;;;;;;5007322;28;20059;-50
2023/03/20 19:46:21;;;;;;;5.28;2.15;;;17.00;73.60;;;;;;5009506;28;20065;-49
2023/03/20 19:49:05;;;;;;;3.30;1.90;;;17.00;73.50;;;;;;5014641;28;20137;-53
2023/03/20 19:51:32;;;;;;;3.83;1.85;;;17.10;73.70;;;;;;5015091;28;20452;-51
2023/03/20 19:53:59;;;;;;;3.97;2.25;;;17.00;73.60;;;;;;5015082;28;20478;-51
2023/03/20 19:56:26;;;;;;;4.07;1.95;;;17.00;73.70;;;;;;5014838;28;20046;-51
2023/03/20 19:58:53;;;;;;;3.05;1.90;;;17.00;73.70;;;;;;5015300;28;20079;-48
2023/03/20 20:01:23;;;;;;;4.50;2.00;;;17.10;73.90;;;;;;5015054;28;20045;-52
2023/03/20 20:03:52;;;;;;;3.03;1.90;;;17.10;73.70;;;;;;5014814;28;20119;-48
2023/03/20 20:06:19;;;;;;;4.25;1.98;;;17.10;73.60;;;;;;5015163;28;20414;-54
2023/03/20 20:08:50;;;;;;;5.68;2.00;;;17.10;73.50;;;;;;5015191;28;20097;-47
2023/03/20 20:11:17;;;;;;;2.95;1.50;;;17.10;73.40;;;;;;5014127;28;20064;-50
2023/03/20 20:13:45;;;;;;;3.25;1.73;;;17.10;73.40;;;;;;5014499;28;20493;-51
2023/03/20 20:16:44;;;;;;;2.92;1.70;;;17.10;73.50;;;;;;5005400;28;20042;-52
2023/03/20 20:19:11;;;;;;;3.45;1.90;;;17.10;73.50;;;;;;5014738;28;20045;-51
2023/03/20 20:21:38;;;;;;;4.65;1.80;;;17.00;73.80;;;;;;5015113;28;20100;-49
2023/03/20 20:24:25;;;;;;;3.70;2.05;;;17.00;74.00;;;;;;5014329;28;20063;-51
2023/03/20 20:26:52;;;;;;;3.38;1.90;;;17.00;73.80;;;;;;5014308;28;20137;-52
2023/03/20 20:29:28;;;;;;;3.15;1.65;;;17.00;73.60;;;;;;5013843;28;20058;-53
2023/03/20 20:31:55;;;;;;;3.25;1.65;;;17.10;73.70;;;;;;5013671;28;20477;-50
2023/03/20 20:34:22;;;;;;;2.42;1.77;;;17.00;73.50;;;;;;5014762;28;20076;-51
2023/03/20 20:37:09;;;;;;;4.05;1.65;;;17.00;73.50;;;;;;5013955;28;20046;-52
2023/03/20 20:39:56;;;;;;;3.30;1.70;;;17.00;73.40;;;;;;5013662;28;20050;-50
2023/03/20 20:42:23;;;;;;;2.95;1.70;;;17.00;73.70;;;;;;5014183;28;20058;-52
2023/03/20 20:44:49;;;;;;;3.30;1.55;;;17.10;73.80;;;;;;5013554;28;20489;-53
2023/03/20 20:47:18;;;;;;;2.35;1.70;;;17.10;73.40;;;;;;5010890;28;51028;-51
2023/03/20 20:49:45;;;;;;;3.63;1.40;;;17.10;73.50;;;;;;5014289;28;20054;-53
2023/03/20 20:52:12;;;;;;;2.72;1.60;;;17.10;73.50;;;;;;5012447;28;20592;-50
2023/03/20 20:54:40;;;;;;;2.80;1.73;;;17.10;73.60;;;;;;5014149;28;20056;-53
2023/03/20 20:57:11;;;;;;;3.00;1.60;;;17.10;73.70;;;;;;5028737;28;20492;-49
2023/03/20 20:59:39;;;;;;;4.43;1.52;;;17.10;73.60;;;;;;5013181;28;20058;-53
2023/03/20 21:02:10;;;;;;;2.33;1.63;;;17.10;73.60;;;;;;5013753;28;20081;-52
2023/03/20 21:04:39;;;;;;;2.58;1.75;;;17.00;73.50;;;;;;5013406;28;20595;-51
2023/03/20 21:07:06;;;;;;;2.25;1.52;;;17.10;73.40;;;;;;5000455;28;20096;-50
2023/03/20 21:09:36;;;;;;;2.10;1.27;;;17.10;73.50;;;;;;5005379;28;20045;-50
2023/03/20 21:12:03;;;;;;;2.25;1.40;;;17.10;73.60;;;;;;5009260;28;20042;-52
2023/03/20 21:14:30;;;;;;;2.35;1.65;;;17.00;73.80;;;;;;5013362;28;20073;-52
2023/03/20 21:16:59;;;;;;;1.73;1.63;;;17.00;73.90;;;;;;5013441;28;20077;-53
2023/03/20 21:19:33;;;;;;;2.42;1.58;;;17.00;73.90;;;;;;5028614;28;20050;-48
2023/03/20 21:21:59;;;;;;;2.42;1.13;;;17.10;73.90;;;;;;5013227;28;20060;-51
2023/03/20 21:24:26;;;;;;;2.10;1.58;;;17.00;73.70;;;;;;5003321;28;20050;-51
2023/03/20 21:27:00;;;;;;;2.42;1.60;;;17.10;73.60;;;;;;5013595;28;20065;-50
2023/03/20 21:29:27;;;;;;;2.75;1.40;;;17.00;73.60;;;;;;5012709;28;20053;-51
2023/03/20 21:31:55;;;;;;;5.93;1.77;;;17.10;73.50;;;;;;5013052;28;20280;-52
2023/03/20 21:34:22;;;;;;;3.20;1.70;;;17.10;73.50;;;;;;5012933;28;20068;-56
2023/03/20 21:36:50;;;;;;;3.13;1.73;;;17.10;73.20;;;;;;5010012;28;20488;-55
2023/03/20 21:39:17;;;;;;;2.13;1.75;;;17.10;73.60;;;;;;5013807;28;20045;-52
2023/03/20 21:41:44;;;;;;;2.20;1.48;;;17.00;73.50;;;;;;5012735;28;20046;-55
2023/03/20 21:44:11;;;;;;;2.13;1.75;;;17.00;73.10;;;;;;5013323;28;20408;-50
2023/03/20 21:46:44;;;;;;;3.35;1.70;;;17.00;73.00;;;;;;5013255;28;20133;-55
2023/03/20 21:49:31;;;;;;;3.47;1.63;;;17.00;72.90;;;;;;5012392;28;20061;-52
2023/03/20 21:52:18;;;;;;;2.22;1.52;;;16.90;72.70;;;;;;5013140;28;20057;-53
2023/03/20 21:55:05;;;;;;;2.20;1.48;;;16.90;72.60;;;;;;5013534;28;20050;-49
2023/03/20 21:57:53;;;;;;;1.90;1.40;;;16.90;72.50;;;;;;5013296;28;20054;-55
2023/03/20 22:00:40;;;;;;;2.35;1.60;;;16.80;72.40;;;;;;5013070;28;20045;-51
2023/03/20 22:03:26;;;;;;;3.42;1.50;;;16.80;72.30;;;;;;5012071;28;20057;-55
2023/03/20 22:06:13;;;;;;;1.85;1.50;;;16.80;72.30;;;;;;5013205;28;20057;-55
2023/03/20 22:09:00;;;;;;;1.77;1.48;;;16.80;72.30;;;;;;5013015;28;20405;-54
2023/03/20 22:11:47;;;;;;;2.42;1.60;;;16.80;72.30;;;;;;5012873;28;20050;-55
2023/03/20 22:14:33;;;;;;;2.85;1.50;;;16.70;72.30;;;;;;5012550;28;20042;-54
2023/03/20 22:17:21;;;;;;;2.47;1.52;;;16.70;72.20;;;;;;5011788;28;20077;-55
2023/03/20 22:20:08;;;;;;;2.38;1.52;;;16.70;72.20;;;;;;5012339;28;20100;-52
2023/03/20 22:22:58;;;;;;;3.03;1.60;;;16.60;72.20;;;;;;5011662;28;20046;-56
2023/03/20 22:25:59;;;;;;;2.60;1.60;;;16.60;72.20;;;;;;5012101;28;20053;-55
2023/03/20 22:28:46;;;;;;;2.72;1.73;;;16.60;72.20;;;;;;5012238;28;20092;-55
2023/03/20 22:31:32;;;;;;;2.75;1.85;;;16.70;71.90;;;;;;5012084;28;20042;-53
2023/03/20 22:34:20;;;;;;;2.10;1.75;;;16.60;71.90;;;;;;5012968;28;20050;-55
2023/03/20 22:37:06;;;;;;;2.92;1.65;;;16.60;72.10;;;;;;5012728;28;20050;-51
2023/03/20 22:39:53;;;;;;;1.80;1.70;;;16.60;71.90;;;;;;5014065;28;20045;-53
2023/03/20 22:42:40;;;;;;;2.55;1.52;;;16.50;72.10;;;;;;5032119;28;20053;-55
2023/03/20 22:45:26;;;;;;;3.00;1.60;;;16.60;72.00;;;;;;5031031;28;20046;-51
2023/03/20 22:48:04;;;;;;;1.58;1.48;;;16.50;72.00;;;;;;5032222;28;20407;-55
2023/03/20 22:50:31;;;;;;;1.98;1.77;;;16.50;72.10;;;;;;5031889;28;20484;-50
2023/03/20 22:53:00;;;;;;;2.25;1.60;;;16.50;71.90;;;;;;5031381;28;20487;-51
2023/03/20 22:55:27;;;;;;;2.67;1.55;;;16.50;72.00;;;;;;5031666;28;20054;-55
2023/03/20 22:57:55;;;;;;;4.50;1.67;;;16.50;72.10;;;;;;5032246;28;20052;-56
2023/03/20 23:00:34;;;;;;;2.05;1.70;;;16.50;72.00;;;;;;5027365;28;20057;-53
2023/03/20 23:03:01;;;;;;;1.50;1.40;;;16.40;71.90;;;;;;4992539;28;20117;-55
2023/03/20 23:05:45;;;;;;;1.65;1.55;;;16.40;71.90;;;;;;4992432;28;20057;-53
2023/03/20 23:08:12;;;;;;;2.67;1.75;;;16.40;71.90;;;;;;4992528;28;20078;-55
2023/03/20 23:10:43;;;;;;;1.52;1.42;;;16.40;72.00;;;;;;4992675;28;20054;-52
2023/03/20 23:13:10;;;;;;;1.67;1.58;;;16.40;72.10;;;;;;4992148;28;20133;-55
2023/03/20 23:15:37;;;;;;;2.10;1.90;;;16.40;72.20;;;;;;4994900;28;20054;-53
2023/03/20 23:18:04;;;;;;;4.05;1.90;;;16.30;72.20;;;;;;4996205;28;20141;-55
2023/03/20 23:20:30;;;;;;;2.13;1.67;;;16.40;72.20;;;;;;4995971;28;20042;-54
2023/03/20 23:22:57;;;;;;;1.92;1.75;;;16.30;72.20;;;;;;4996008;28;20069;-53
2023/03/20 23:25:24;;;;;;;1.67;1.58;;;16.30;72.20;;;;;;4996333;28;20081;-55
2023/03/20 23:28:05;;;;;;;1.95;1.85;;;16.30;72.30;;;;;;4995721;28;20060;-55
2023/03/20 23:30:32;;;;;;;3.33;2.10;;;16.30;72.30;;;;;;4996552;28;20062;-55
2023/03/20 23:33:11;;;;;;;2.30;2.00;;;16.30;72.30;;;;;;4996381;28;20461;-54
2023/03/20 23:35:38;;;;;;;2.38;2.17;;;16.20;72.20;;;;;;4995599;28;20054;-54
2023/03/20 23:38:05;;;;;;;2.72;2.13;;;16.30;72.30;;;;;;4996256;28;20050;-53
2023/03/20 23:40:32;;;;;;;2.10;1.90;;;16.20;72.20;;;;;;4996202;28;20054;-55
2023/03/20 23:42:58;;;;;;;3.30;2.30;;;16.20;72.90;;;;;;4995556;28;20053;-54
2023/03/20 23:45:25;;;;;;;2.28;2.03;;;16.20;72.30;;;;;;5030896;28;20506;-53
2023/03/20 23:47:52;;;;;;;4.05;2.10;;;16.20;72.30;;;;;;5034440;28;20077;-55
2023/03/20 23:50:22;;;;;;;2.28;2.08;;;16.20;72.30;;;;;;5035256;28;20045;-53
2023/03/20 23:53:08;;;;;;;2.53;2.20;;;16.20;72.40;;;;;;5035388;28;20403;-53
2023/03/20 23:55:46;;;;;;;2.50;2.00;;;16.20;72.30;;;;;;5034464;28;20049;-54
2023/03/20 23:58:13;;;;;;;4.90;2.38;;;16.20;72.40;;;;;;5035149;28;20049;-51
